sensor_id;sensor_type;location;lat;lon;timestamp;P1;durP1;ratioP1;P2;durP2;ratioP2
27225;SDS011;14732;51.074;3.788;2022-08-18T00:01:45;107.32;;;54.58;;
27225;SDS011;14732;51.074;3.788;2022-08-18T00:04:15;106.05;;;56.08;;
27225;SDS011;14732;51.074;3.788;2022-08-18T00:06:41;114.55;;;56.20;;
27225;SDS011;14732;51.074;3.788;2022-08-18T00:09:07;121.50;;;56.47;;
27225;SDS011;14732;51.074;3.788;2022-08-18T00:11:41;111.05;;;55.83;;
27225;SDS011;14732;51.074;3.788;2022-08-18T00:14:18;106.20;;;52.47;;
27225;SDS011;14732;51.074;3.788;2022-08-18T00:16:45;86.03;;;45.30;;
27225;SDS011;14732;51.074;3.788;2022-08-18T00:19:10;105.80;;;51.67;;
27225;SDS011;14732;51.074;3.788;2022-08-18T00:21:36;95.55;;;49.63;;
27225;SDS011;14732;51.074;3.788;2022-08-18T00:24:02;89.05;;;47.83;;
27225;SDS011;14732;51.074;3.788;2022-08-18T00:26:28;106.80;;;55.08;;
27225;SDS011;14732;51.074;3.788;2022-08-18T00:28:55;104.82;;;54.25;;
27225;SDS011;14732;51.074;3.788;2022-08-18T00:31:20;119.55;;;57.22;;
27225;SDS011;14732;51.074;3.788;2022-08-18T00:33:46;113.20;;;57.33;;
27225;SDS011;14732;51.074;3.788;2022-08-18T00:36:12;121.28;;;56.83;;
27225;SDS011;14732;51.074;3.788;2022-08-18T00:38:38;116.82;;;57.90;;
27225;SDS011;14732;51.074;3.788;2022-08-18T00:41:05;105.82;;;53.92;;
27225;SDS011;14732;51.074;3.788;2022-08-18T00:46:01;104.43;;;54.08;;
27225;SDS011;14732;51.074;3.788;2022-08-18T00:48:30;107.10;;;53.80;;
27225;SDS011;14732;51.074;3.788;2022-08-18T00:50:59;106.15;;;52.70;;
27225;SDS011;14732;51.074;3.788;2022-08-18T00:53:42;93.90;;;49.90;;
27225;SDS011;14732;51.074;3.788;2022-08-18T00:56:15;102.55;;;52.50;;
27225;SDS011;14732;51.074;3.788;2022-08-18T01:01:20;105.67;;;52.50;;
27225;SDS011;14732;51.074;3.788;2022-08-18T01:03:49;100.60;;;51.80;;
27225;SDS011;14732;51.074;3.788;2022-08-18T01:09:07;98.00;;;50.40;;
27225;SDS011;14732;51.074;3.788;2022-08-18T01:11:34;90.65;;;47.38;;
27225;SDS011;14732;51.074;3.788;2022-08-18T01:14:01;103.95;;;51.75;;
27225;SDS011;14732;51.074;3.788;2022-08-18T01:16:31;90.72;;;46.78;;
27225;SDS011;14732;51.074;3.788;2022-08-18T01:19:16;92.63;;;47.35;;
27225;SDS011;14732;51.074;3.788;2022-08-18T01:22:12;92.45;;;49.20;;
27225;SDS011;14732;51.074;3.788;2022-08-18T01:24:46;86.90;;;47.35;;
27225;SDS011;14732;51.074;3.788;2022-08-18T01:27:32;85.30;;;46.10;;
27225;SDS011;14732;51.074;3.788;2022-08-18T01:30:02;101.15;;;51.22;;
27225;SDS011;14732;51.074;3.788;2022-08-18T01:32:31;101.18;;;49.72;;
27225;SDS011;14732;51.074;3.788;2022-08-18T01:34:57;102.72;;;51.92;;
27225;SDS011;14732;51.074;3.788;2022-08-18T01:37:23;113.72;;;54.38;;
27225;SDS011;14732;51.074;3.788;2022-08-18T01:39:49;103.75;;;52.38;;
27225;SDS011;14732;51.074;3.788;2022-08-18T01:42:15;105.20;;;50.40;;
27225;SDS011;14732;51.074;3.788;2022-08-18T01:44:42;106.88;;;51.05;;
27225;SDS011;14732;51.074;3.788;2022-08-18T01:47:10;105.93;;;50.55;;
27225;SDS011;14732;51.074;3.788;2022-08-18T01:49:36;107.82;;;50.78;;
27225;SDS011;14732;51.074;3.788;2022-08-18T01:52:06;99.72;;;49.17;;
27225;SDS011;14732;51.074;3.788;2022-08-18T01:54:33;101.78;;;52.03;;
27225;SDS011;14732;51.074;3.788;2022-08-18T01:56:59;98.15;;;48.90;;
27225;SDS011;14732;51.074;3.788;2022-08-18T01:59:24;94.95;;;46.75;;
27225;SDS011;14732;51.074;3.788;2022-08-18T02:01:50;92.13;;;48.30;;
27225;SDS011;14732;51.074;3.788;2022-08-18T02:04:23;91.30;;;45.47;;
27225;SDS011;14732;51.074;3.788;2022-08-18T02:06:52;82.07;;;44.47;;
27225;SDS011;14732;51.074;3.788;2022-08-18T02:09:19;87.75;;;44.72;;
27225;SDS011;14732;51.074;3.788;2022-08-18T02:11:46;84.93;;;45.45;;
27225;SDS011;14732;51.074;3.788;2022-08-18T02:14:12;83.82;;;44.30;;
27225;SDS011;14732;51.074;3.788;2022-08-18T02:16:37;90.20;;;44.55;;
27225;SDS011;14732;51.074;3.788;2022-08-18T02:19:03;92.60;;;46.30;;
27225;SDS011;14732;51.074;3.788;2022-08-18T02:21:28;80.82;;;45.72;;
27225;SDS011;14732;51.074;3.788;2022-08-18T02:23:54;81.72;;;45.00;;
27225;SDS011;14732;51.074;3.788;2022-08-18T02:26:20;73.10;;;42.83;;
27225;SDS011;14732;51.074;3.788;2022-08-18T02:28:47;72.47;;;42.67;;
27225;SDS011;14732;51.074;3.788;2022-08-18T02:31:15;82.13;;;40.97;;
27225;SDS011;14732;51.074;3.788;2022-08-18T02:36:09;86.18;;;46.33;;
27225;SDS011;14732;51.074;3.788;2022-08-18T02:38:36;224.15;;;53.63;;
27225;SDS011;14732;51.074;3.788;2022-08-18T02:41:03;132.02;;;55.90;;
27225;SDS011;14732;51.074;3.788;2022-08-18T02:43:30;129.43;;;55.17;;
27225;SDS011;14732;51.074;3.788;2022-08-18T02:45:56;95.72;;;50.38;;
27225;SDS011;14732;51.074;3.788;2022-08-18T02:48:22;87.72;;;47.20;;
27225;SDS011;14732;51.074;3.788;2022-08-18T02:53:26;86.22;;;47.00;;
27225;SDS011;14732;51.074;3.788;2022-08-18T02:55:53;88.50;;;48.88;;
27225;SDS011;14732;51.074;3.788;2022-08-18T02:58:19;94.18;;;48.88;;
27225;SDS011;14732;51.074;3.788;2022-08-18T03:00:44;85.07;;;47.13;;
27225;SDS011;14732;51.074;3.788;2022-08-18T03:03:11;76.07;;;44.03;;
27225;SDS011;14732;51.074;3.788;2022-08-18T03:05:37;77.88;;;45.17;;
27225;SDS011;14732;51.074;3.788;2022-08-18T03:08:03;76.95;;;43.08;;
27225;SDS011;14732;51.074;3.788;2022-08-18T03:10:29;106.68;;;41.83;;
27225;SDS011;14732;51.074;3.788;2022-08-18T03:12:55;81.43;;;42.17;;
27225;SDS011;14732;51.074;3.788;2022-08-18T03:15:20;142.43;;;42.95;;
27225;SDS011;14732;51.074;3.788;2022-08-18T03:17:46;233.45;;;50.17;;
27225;SDS011;14732;51.074;3.788;2022-08-18T03:20:12;133.57;;;47.65;;
27225;SDS011;14732;51.074;3.788;2022-08-18T03:22:38;78.20;;;44.00;;
27225;SDS011;14732;51.074;3.788;2022-08-18T03:25:03;89.95;;;46.30;;
27225;SDS011;14732;51.074;3.788;2022-08-18T03:27:29;91.03;;;47.15;;
27225;SDS011;14732;51.074;3.788;2022-08-18T03:29:55;88.25;;;46.08;;
27225;SDS011;14732;51.074;3.788;2022-08-18T03:32:21;80.57;;;45.60;;
27225;SDS011;14732;51.074;3.788;2022-08-18T03:34:46;84.22;;;43.20;;
27225;SDS011;14732;51.074;3.788;2022-08-18T03:37:12;152.00;;;44.90;;
27225;SDS011;14732;51.074;3.788;2022-08-18T03:39:39;78.72;;;44.80;;
27225;SDS011;14732;51.074;3.788;2022-08-18T03:42:05;80.75;;;44.42;;
27225;SDS011;14732;51.074;3.788;2022-08-18T03:44:32;76.55;;;42.67;;
27225;SDS011;14732;51.074;3.788;2022-08-18T03:47:02;68.05;;;41.08;;
27225;SDS011;14732;51.074;3.788;2022-08-18T03:49:31;69.38;;;40.88;;
27225;SDS011;14732;51.074;3.788;2022-08-18T03:51:57;65.18;;;41.28;;
27225;SDS011;14732;51.074;3.788;2022-08-18T03:54:27;72.07;;;40.88;;
27225;SDS011;14732;51.074;3.788;2022-08-18T03:56:53;64.90;;;40.08;;
27225;SDS011;14732;51.074;3.788;2022-08-18T03:59:20;57.15;;;38.58;;
27225;SDS011;14732;51.074;3.788;2022-08-18T04:01:49;56.13;;;38.00;;
27225;SDS011;14732;51.074;3.788;2022-08-18T04:04:17;53.00;;;36.13;;
27225;SDS011;14732;51.074;3.788;2022-08-18T04:06:46;57.67;;;37.13;;
27225;SDS011;14732;51.074;3.788;2022-08-18T04:09:16;57.25;;;37.50;;
27225;SDS011;14732;51.074;3.788;2022-08-18T04:11:42;58.97;;;37.30;;
27225;SDS011;14732;51.074;3.788;2022-08-18T04:14:10;54.60;;;36.97;;
27225;SDS011;14732;51.074;3.788;2022-08-18T04:16:37;56.58;;;37.25;;
27225;SDS011;14732;51.074;3.788;2022-08-18T04:19:04;57.65;;;36.72;;
27225;SDS011;14732;51.074;3.788;2022-08-18T04:21:31;56.25;;;36.35;;
27225;SDS011;14732;51.074;3.788;2022-08-18T04:23:59;59.33;;;36.23;;
27225;SDS011;14732;51.074;3.788;2022-08-18T04:26:36;55.53;;;35.35;;
27225;SDS011;14732;51.074;3.788;2022-08-18T04:29:10;51.15;;;34.05;;
27225;SDS011;14732;51.074;3.788;2022-08-18T04:31:38;54.03;;;33.97;;
27225;SDS011;14732;51.074;3.788;2022-08-18T04:34:05;55.17;;;34.20;;
27225;SDS011;14732;51.074;3.788;2022-08-18T04:36:31;55.10;;;34.97;;
27225;SDS011;14732;51.074;3.788;2022-08-18T04:38:59;49.17;;;33.08;;
27225;SDS011;14732;51.074;3.788;2022-08-18T04:41:26;58.35;;;34.00;;
27225;SDS011;14732;51.074;3.788;2022-08-18T04:44:02;52.97;;;34.35;;
27225;SDS011;14732;51.074;3.788;2022-08-18T04:46:29;50.90;;;33.28;;
27225;SDS011;14732;51.074;3.788;2022-08-18T04:49:00;52.42;;;34.22;;
27225;SDS011;14732;51.074;3.788;2022-08-18T04:51:28;55.88;;;35.10;;
27225;SDS011;14732;51.074;3.788;2022-08-18T04:53:54;59.78;;;37.63;;
27225;SDS011;14732;51.074;3.788;2022-08-18T04:56:22;71.82;;;41.65;;
27225;SDS011;14732;51.074;3.788;2022-08-18T04:58:53;61.47;;;38.28;;
27225;SDS011;14732;51.074;3.788;2022-08-18T05:01:23;63.90;;;38.37;;
27225;SDS011;14732;51.074;3.788;2022-08-18T05:03:51;61.88;;;38.17;;
27225;SDS011;14732;51.074;3.788;2022-08-18T05:06:19;59.50;;;35.17;;
27225;SDS011;14732;51.074;3.788;2022-08-18T05:08:49;66.57;;;37.80;;
27225;SDS011;14732;51.074;3.788;2022-08-18T05:11:18;65.70;;;37.38;;
27225;SDS011;14732;51.074;3.788;2022-08-18T05:13:45;59.15;;;38.00;;
27225;SDS011;14732;51.074;3.788;2022-08-18T05:16:12;56.63;;;35.35;;
27225;SDS011;14732;51.074;3.788;2022-08-18T05:18:38;56.08;;;35.40;;
27225;SDS011;14732;51.074;3.788;2022-08-18T05:21:05;62.75;;;36.83;;
27225;SDS011;14732;51.074;3.788;2022-08-18T05:23:35;54.97;;;35.10;;
27225;SDS011;14732;51.074;3.788;2022-08-18T05:26:01;56.72;;;34.58;;
27225;SDS011;14732;51.074;3.788;2022-08-18T05:28:28;64.97;;;36.17;;
27225;SDS011;14732;51.074;3.788;2022-08-18T05:30:55;55.33;;;34.40;;
27225;SDS011;14732;51.074;3.788;2022-08-18T05:33:21;58.95;;;36.40;;
27225;SDS011;14732;51.074;3.788;2022-08-18T05:35:49;56.22;;;35.97;;
27225;SDS011;14732;51.074;3.788;2022-08-18T05:41:10;55.78;;;34.75;;
27225;SDS011;14732;51.074;3.788;2022-08-18T05:43:46;50.00;;;33.47;;
27225;SDS011;14732;51.074;3.788;2022-08-18T05:46:13;53.53;;;34.33;;
27225;SDS011;14732;51.074;3.788;2022-08-18T05:48:39;52.28;;;34.10;;
27225;SDS011;14732;51.074;3.788;2022-08-18T05:51:15;49.35;;;33.83;;
27225;SDS011;14732;51.074;3.788;2022-08-18T05:53:47;43.20;;;32.17;;
27225;SDS011;14732;51.074;3.788;2022-08-18T05:56:32;42.25;;;30.33;;
27225;SDS011;14732;51.074;3.788;2022-08-18T05:59:22;38.92;;;28.42;;
27225;SDS011;14732;51.074;3.788;2022-08-18T06:01:58;37.85;;;29.05;;
27225;SDS011;14732;51.074;3.788;2022-08-18T06:07:33;37.25;;;27.58;;
27225;SDS011;14732;51.074;3.788;2022-08-18T06:10:05;34.85;;;27.20;;
27225;SDS011;14732;51.074;3.788;2022-08-18T06:12:34;34.90;;;23.92;;
27225;SDS011;14732;51.074;3.788;2022-08-18T06:20:00;40.95;;;29.55;;
27225;SDS011;14732;51.074;3.788;2022-08-18T06:28:00;40.28;;;29.20;;
27225;SDS011;14732;51.074;3.788;2022-08-18T06:35:58;39.95;;;30.85;;
27225;SDS011;14732;51.074;3.788;2022-08-18T06:41:19;44.25;;;30.25;;
27225;SDS011;14732;51.074;3.788;2022-08-18T06:43:56;41.20;;;31.40;;
27225;SDS011;14732;51.074;3.788;2022-08-18T06:46:29;46.00;;;32.40;;
27225;SDS011;14732;51.074;3.788;2022-08-18T06:48:58;44.10;;;31.13;;
27225;SDS011;14732;51.074;3.788;2022-08-18T06:51:28;39.80;;;31.40;;
27225;SDS011;14732;51.074;3.788;2022-08-18T06:54:05;42.13;;;31.13;;
27225;SDS011;14732;51.074;3.788;2022-08-18T06:56:34;44.15;;;31.23;;
27225;SDS011;14732;51.074;3.788;2022-08-18T07:01:45;40.15;;;31.58;;
27225;SDS011;14732;51.074;3.788;2022-08-18T07:04:31;40.60;;;30.20;;
27225;SDS011;14732;51.074;3.788;2022-08-18T07:07:16;39.13;;;29.42;;
27225;SDS011;14732;51.074;3.788;2022-08-18T07:09:53;37.60;;;28.45;;
27225;SDS011;14732;51.074;3.788;2022-08-18T07:12:21;39.45;;;28.50;;
27225;SDS011;14732;51.074;3.788;2022-08-18T07:14:54;32.58;;;24.08;;
27225;SDS011;14732;51.074;3.788;2022-08-18T07:17:32;38.03;;;26.65;;
27225;SDS011;14732;51.074;3.788;2022-08-18T07:20:09;34.50;;;24.77;;
27225;SDS011;14732;51.074;3.788;2022-08-18T07:27:49;32.10;;;23.45;;
27225;SDS011;14732;51.074;3.788;2022-08-18T07:32:59;29.73;;;23.53;;
27225;SDS011;14732;51.074;3.788;2022-08-18T07:38:34;30.70;;;23.95;;
27225;SDS011;14732;51.074;3.788;2022-08-18T07:41:13;27.60;;;21.20;;
27225;SDS011;14732;51.074;3.788;2022-08-18T07:48:47;25.40;;;21.55;;
27225;SDS011;14732;51.074;3.788;2022-08-18T07:56:46;24.70;;;20.90;;
27225;SDS011;14732;51.074;3.788;2022-08-18T08:05:16;22.70;;;18.42;;
27225;SDS011;14732;51.074;3.788;2022-08-18T08:07:57;16.73;;;14.35;;
27225;SDS011;14732;51.074;3.788;2022-08-18T08:21:46;18.35;;;15.02;;
27225;SDS011;14732;51.074;3.788;2022-08-18T08:24:24;15.93;;;13.52;;
27225;SDS011;14732;51.074;3.788;2022-08-18T08:30:03;13.93;;;12.05;;
27225;SDS011;14732;51.074;3.788;2022-08-18T08:32:31;15.10;;;13.50;;
27225;SDS011;14732;51.074;3.788;2022-08-18T08:35:07;16.17;;;14.43;;
27225;SDS011;14732;51.074;3.788;2022-08-18T08:37:47;16.27;;;14.68;;
27225;SDS011;14732;51.074;3.788;2022-08-18T08:40:19;13.85;;;12.48;;
27225;SDS011;14732;51.074;3.788;2022-08-18T08:42:54;29.73;;;19.25;;
27225;SDS011;14732;51.074;3.788;2022-08-18T08:45:35;23.55;;;18.90;;
27225;SDS011;14732;51.074;3.788;2022-08-18T08:48:16;29.77;;;21.45;;
27225;SDS011;14732;51.074;3.788;2022-08-18T08:50:49;27.10;;;21.65;;
27225;SDS011;14732;51.074;3.788;2022-08-18T08:53:26;25.98;;;21.02;;
27225;SDS011;14732;51.074;3.788;2022-08-18T08:55:59;23.52;;;19.45;;
27225;SDS011;14732;51.074;3.788;2022-08-18T08:58:45;27.52;;;19.77;;
27225;SDS011;14732;51.074;3.788;2022-08-18T09:01:23;29.27;;;21.25;;
27225;SDS011;14732;51.074;3.788;2022-08-18T09:04:16;26.30;;;21.87;;
27225;SDS011;14732;51.074;3.788;2022-08-18T09:09:48;20.02;;;15.65;;
27225;SDS011;14732;51.074;3.788;2022-08-18T09:15:40;20.95;;;18.80;;
27225;SDS011;14732;51.074;3.788;2022-08-18T09:18:30;20.17;;;16.95;;
27225;SDS011;14732;51.074;3.788;2022-08-18T09:21:17;25.17;;;19.13;;
27225;SDS011;14732;51.074;3.788;2022-08-18T09:23:49;21.08;;;18.00;;
27225;SDS011;14732;51.074;3.788;2022-08-18T09:31:47;27.25;;;22.90;;
27225;SDS011;14732;51.074;3.788;2022-08-18T09:34:43;26.75;;;21.75;;
27225;SDS011;14732;51.074;3.788;2022-08-18T09:42:57;28.50;;;24.58;;
27225;SDS011;14732;51.074;3.788;2022-08-18T09:48:33;28.08;;;20.02;;
27225;SDS011;14732;51.074;3.788;2022-08-18T09:51:20;24.92;;;19.98;;
27225;SDS011;14732;51.074;3.788;2022-08-18T09:54:10;25.85;;;20.25;;
27225;SDS011;14732;51.074;3.788;2022-08-18T09:59:49;26.25;;;21.55;;
27225;SDS011;14732;51.074;3.788;2022-08-18T10:02:12;28.03;;;21.23;;
27225;SDS011;14732;51.074;3.788;2022-08-18T10:24:20;29.58;;;23.05;;
27225;SDS011;14732;51.074;3.788;2022-08-18T10:32:34;11.20;;;10.10;;
27225;SDS011;14732;51.074;3.788;2022-08-18T10:37:17;13.07;;;9.20;;
27225;SDS011;14732;51.074;3.788;2022-08-18T10:42:37;10.10;;;9.20;;
27225;SDS011;14732;51.074;3.788;2022-08-18T10:55:48;11.35;;;9.45;;
27225;SDS011;14732;51.074;3.788;2022-08-18T11:01:45;13.90;;;11.15;;
27225;SDS011;14732;51.074;3.788;2022-08-18T11:04:41;13.48;;;10.80;;
27225;SDS011;14732;51.074;3.788;2022-08-18T11:07:20;11.30;;;9.52;;
27225;SDS011;14732;51.074;3.788;2022-08-18T11:09:49;8.57;;;7.50;;
27225;SDS011;14732;51.074;3.788;2022-08-18T11:13:21;9.45;;;8.32;;
27225;SDS011;14732;51.074;3.788;2022-08-18T11:15:30;10.52;;;7.60;;
27225;SDS011;14732;51.074;3.788;2022-08-18T11:18:41;8.13;;;6.80;;
27225;SDS011;14732;51.074;3.788;2022-08-18T11:26:31;14.00;;;12.60;;
27225;SDS011;14732;51.074;3.788;2022-08-18T11:31:48;17.70;;;9.93;;
27225;SDS011;14732;51.074;3.788;2022-08-18T11:34:21;12.85;;;9.88;;
27225;SDS011;14732;51.074;3.788;2022-08-18T11:37:01;11.95;;;9.30;;
27225;SDS011;14732;51.074;3.788;2022-08-18T11:39:29;8.93;;;7.75;;
27225;SDS011;14732;51.074;3.788;2022-08-18T11:41:55;9.82;;;7.18;;
27225;SDS011;14732;51.074;3.788;2022-08-18T11:44:28;6.75;;;5.57;;
27225;SDS011;14732;51.074;3.788;2022-08-18T11:46:55;6.43;;;5.85;;
27225;SDS011;14732;51.074;3.788;2022-08-18T11:50:30;7.88;;;7.15;;
27225;SDS011;14732;51.074;3.788;2022-08-18T11:52:43;10.60;;;7.95;;
27225;SDS011;14732;51.074;3.788;2022-08-18T11:55:28;14.57;;;8.88;;
27225;SDS011;14732;51.074;3.788;2022-08-18T11:57:56;12.10;;;8.40;;
27225;SDS011;14732;51.074;3.788;2022-08-18T12:00:39;15.30;;;9.63;;
27225;SDS011;14732;51.074;3.788;2022-08-18T12:03:24;11.82;;;8.45;;
27225;SDS011;14732;51.074;3.788;2022-08-18T12:06:18;12.27;;;8.15;;
27225;SDS011;14732;51.074;3.788;2022-08-18T12:08:49;11.48;;;7.15;;
27225;SDS011;14732;51.074;3.788;2022-08-18T12:11:29;7.85;;;7.05;;
27225;SDS011;14732;51.074;3.788;2022-08-18T12:14:08;9.82;;;6.85;;
27225;SDS011;14732;51.074;3.788;2022-08-18T12:16:44;11.80;;;7.70;;
27225;SDS011;14732;51.074;3.788;2022-08-18T12:19:10;8.70;;;6.65;;
27225;SDS011;14732;51.074;3.788;2022-08-18T12:21:38;7.88;;;6.53;;
27225;SDS011;14732;51.074;3.788;2022-08-18T12:24:07;7.90;;;6.15;;
27225;SDS011;14732;51.074;3.788;2022-08-18T12:26:41;8.50;;;6.20;;
27225;SDS011;14732;51.074;3.788;2022-08-18T12:29:06;6.45;;;5.85;;
27225;SDS011;14732;51.074;3.788;2022-08-18T12:31:32;7.35;;;6.65;;
27225;SDS011;14732;51.074;3.788;2022-08-18T12:33:58;7.22;;;6.32;;
27225;SDS011;14732;51.074;3.788;2022-08-18T12:36:23;7.47;;;6.25;;
27225;SDS011;14732;51.074;3.788;2022-08-18T12:38:49;7.35;;;6.65;;
27225;SDS011;14732;51.074;3.788;2022-08-18T12:41:16;6.72;;;6.03;;
27225;SDS011;14732;51.074;3.788;2022-08-18T12:43:41;11.48;;;6.40;;
27225;SDS011;14732;51.074;3.788;2022-08-18T12:46:07;8.05;;;5.82;;
27225;SDS011;14732;51.074;3.788;2022-08-18T12:48:33;6.43;;;5.80;;
27225;SDS011;14732;51.074;3.788;2022-08-18T12:51:01;7.15;;;6.32;;
27225;SDS011;14732;51.074;3.788;2022-08-18T12:53:27;8.50;;;6.40;;
27225;SDS011;14732;51.074;3.788;2022-08-18T12:55:54;6.90;;;6.22;;
27225;SDS011;14732;51.074;3.788;2022-08-18T12:58:20;6.60;;;6.00;;
27225;SDS011;14732;51.074;3.788;2022-08-18T13:00:45;7.45;;;6.75;;
27225;SDS011;14732;51.074;3.788;2022-08-18T13:03:12;7.45;;;6.68;;
27225;SDS011;14732;51.074;3.788;2022-08-18T13:05:38;10.00;;;6.40;;
27225;SDS011;14732;51.074;3.788;2022-08-18T13:08:06;6.50;;;5.97;;
27225;SDS011;14732;51.074;3.788;2022-08-18T13:10:37;6.32;;;5.70;;
27225;SDS011;14732;51.074;3.788;2022-08-18T13:13:03;7.75;;;6.25;;
27225;SDS011;14732;51.074;3.788;2022-08-18T13:15:29;7.72;;;6.05;;
27225;SDS011;14732;51.074;3.788;2022-08-18T13:17:56;6.93;;;6.13;;
27225;SDS011;14732;51.074;3.788;2022-08-18T13:20:22;8.63;;;6.07;;
27225;SDS011;14732;51.074;3.788;2022-08-18T13:22:48;9.50;;;6.93;;
27225;SDS011;14732;51.074;3.788;2022-08-18T13:25:14;8.27;;;6.15;;
27225;SDS011;14732;51.074;3.788;2022-08-18T13:27:41;5.78;;;5.28;;
27225;SDS011;14732;51.074;3.788;2022-08-18T13:30:09;6.65;;;6.05;;
27225;SDS011;14732;51.074;3.788;2022-08-18T13:32:38;7.28;;;6.20;;
27225;SDS011;14732;51.074;3.788;2022-08-18T13:35:05;5.45;;;4.95;;
27225;SDS011;14732;51.074;3.788;2022-08-18T13:37:31;9.60;;;5.78;;
27225;SDS011;14732;51.074;3.788;2022-08-18T13:39:58;8.82;;;5.60;;
27225;SDS011;14732;51.074;3.788;2022-08-18T13:42:25;7.00;;;6.10;;
27225;SDS011;14732;51.074;3.788;2022-08-18T13:44:53;8.27;;;5.37;;
27225;SDS011;14732;51.074;3.788;2022-08-18T13:47:22;7.03;;;6.30;;
27225;SDS011;14732;51.074;3.788;2022-08-18T13:49:51;5.55;;;4.50;;
27225;SDS011;14732;51.074;3.788;2022-08-18T13:52:17;6.53;;;4.95;;
27225;SDS011;14732;51.074;3.788;2022-08-18T13:54:43;6.97;;;5.95;;
27225;SDS011;14732;51.074;3.788;2022-08-18T13:57:10;6.10;;;5.50;;
27225;SDS011;14732;51.074;3.788;2022-08-18T13:59:36;5.68;;;5.18;;
27225;SDS011;14732;51.074;3.788;2022-08-18T14:02:04;5.90;;;5.40;;
27225;SDS011;14732;51.074;3.788;2022-08-18T14:04:33;6.32;;;5.35;;
27225;SDS011;14732;51.074;3.788;2022-08-18T14:07:00;8.30;;;5.50;;
27225;SDS011;14732;51.074;3.788;2022-08-18T14:09:26;5.93;;;5.35;;
27225;SDS011;14732;51.074;3.788;2022-08-18T14:11:53;5.72;;;5.13;;
27225;SDS011;14732;51.074;3.788;2022-08-18T14:14:19;8.48;;;6.10;;
27225;SDS011;14732;51.074;3.788;2022-08-18T14:16:45;6.50;;;5.85;;
27225;SDS011;14732;51.074;3.788;2022-08-18T14:19:11;9.45;;;6.68;;
27225;SDS011;14732;51.074;3.788;2022-08-18T14:22:06;7.78;;;5.60;;
27225;SDS011;14732;51.074;3.788;2022-08-18T14:24:50;6.47;;;5.88;;
27225;SDS011;14732;51.074;3.788;2022-08-18T14:27:35;6.88;;;6.10;;
27225;SDS011;14732;51.074;3.788;2022-08-18T14:30:11;6.38;;;5.50;;
27225;SDS011;14732;51.074;3.788;2022-08-18T14:32:39;8.35;;;5.50;;
27225;SDS011;14732;51.074;3.788;2022-08-18T14:35:07;6.90;;;5.45;;
27225;SDS011;14732;51.074;3.788;2022-08-18T14:37:34;7.50;;;5.63;;
27225;SDS011;14732;51.074;3.788;2022-08-18T14:40:00;9.77;;;5.82;;
27225;SDS011;14732;51.074;3.788;2022-08-18T14:42:26;5.82;;;5.22;;
27225;SDS011;14732;51.074;3.788;2022-08-18T14:44:52;6.22;;;5.55;;
27225;SDS011;14732;51.074;3.788;2022-08-18T14:47:17;8.23;;;6.15;;
27225;SDS011;14732;51.074;3.788;2022-08-18T14:49:43;8.70;;;6.85;;
27225;SDS011;14732;51.074;3.788;2022-08-18T14:52:10;10.35;;;6.97;;
27225;SDS011;14732;51.074;3.788;2022-08-18T14:54:36;7.55;;;6.85;;
27225;SDS011;14732;51.074;3.788;2022-08-18T14:57:02;9.40;;;6.88;;
27225;SDS011;14732;51.074;3.788;2022-08-18T14:59:35;11.75;;;6.55;;
27225;SDS011;14732;51.074;3.788;2022-08-18T15:02:02;6.68;;;5.95;;
27225;SDS011;14732;51.074;3.788;2022-08-18T15:04:28;6.50;;;5.90;;
27225;SDS011;14732;51.074;3.788;2022-08-18T15:06:54;6.63;;;6.03;;
27225;SDS011;14732;51.074;3.788;2022-08-18T15:09:20;8.48;;;6.53;;
27225;SDS011;14732;51.074;3.788;2022-08-18T15:11:46;6.70;;;6.10;;
27225;SDS011;14732;51.074;3.788;2022-08-18T15:14:13;6.57;;;5.88;;
27225;SDS011;14732;51.074;3.788;2022-08-18T15:16:41;9.10;;;6.82;;
27225;SDS011;14732;51.074;3.788;2022-08-18T15:19:07;7.93;;;7.10;;
27225;SDS011;14732;51.074;3.788;2022-08-18T15:21:32;7.05;;;6.35;;
27225;SDS011;14732;51.074;3.788;2022-08-18T15:24:16;6.97;;;6.28;;
27225;SDS011;14732;51.074;3.788;2022-08-18T15:27:00;6.50;;;5.90;;
27225;SDS011;14732;51.074;3.788;2022-08-18T15:29:29;6.15;;;5.65;;
27225;SDS011;14732;51.074;3.788;2022-08-18T15:31:56;7.28;;;6.05;;
27225;SDS011;14732;51.074;3.788;2022-08-18T15:34:22;10.52;;;6.40;;
27225;SDS011;14732;51.074;3.788;2022-08-18T15:36:48;7.40;;;6.70;;
27225;SDS011;14732;51.074;3.788;2022-08-18T15:39:14;7.00;;;6.18;;
27225;SDS011;14732;51.074;3.788;2022-08-18T15:41:41;7.85;;;7.05;;
27225;SDS011;14732;51.074;3.788;2022-08-18T15:44:13;8.27;;;6.35;;
27225;SDS011;14732;51.074;3.788;2022-08-18T15:46:42;7.05;;;6.20;;
27225;SDS011;14732;51.074;3.788;2022-08-18T15:49:08;10.10;;;6.53;;
27225;SDS011;14732;51.074;3.788;2022-08-18T15:51:35;7.10;;;6.32;;
27225;SDS011;14732;51.074;3.788;2022-08-18T15:54:02;7.20;;;6.47;;
27225;SDS011;14732;51.074;3.788;2022-08-18T15:56:29;7.28;;;6.53;;
27225;SDS011;14732;51.074;3.788;2022-08-18T15:58:56;10.38;;;6.32;;
27225;SDS011;14732;51.074;3.788;2022-08-18T16:01:24;5.82;;;5.32;;
27225;SDS011;14732;51.074;3.788;2022-08-18T16:03:50;6.70;;;6.10;;
27225;SDS011;14732;51.074;3.788;2022-08-18T16:06:19;6.88;;;6.28;;
27225;SDS011;14732;51.074;3.788;2022-08-18T16:08:48;7.15;;;6.45;;
27225;SDS011;14732;51.074;3.788;2022-08-18T16:11:14;7.97;;;6.82;;
27225;SDS011;14732;51.074;3.788;2022-08-18T16:13:40;6.95;;;6.35;;
27225;SDS011;14732;51.074;3.788;2022-08-18T16:16:39;8.13;;;6.20;;
27225;SDS011;14732;51.074;3.788;2022-08-18T16:18:58;8.93;;;6.35;;
27225;SDS011;14732;51.074;3.788;2022-08-18T16:21:25;6.63;;;6.03;;
27225;SDS011;14732;51.074;3.788;2022-08-18T16:23:52;7.93;;;6.22;;
27225;SDS011;14732;51.074;3.788;2022-08-18T16:26:19;7.50;;;6.38;;
27225;SDS011;14732;51.074;3.788;2022-08-18T16:28:46;7.45;;;6.43;;
27225;SDS011;14732;51.074;3.788;2022-08-18T16:31:17;8.15;;;6.40;;
27225;SDS011;14732;51.074;3.788;2022-08-18T16:33:54;7.15;;;6.45;;
27225;SDS011;14732;51.074;3.788;2022-08-18T16:36:21;8.52;;;7.18;;
27225;SDS011;14732;51.074;3.788;2022-08-18T16:38:49;11.02;;;7.60;;
27225;SDS011;14732;51.074;3.788;2022-08-18T16:41:15;9.52;;;6.50;;
27225;SDS011;14732;51.074;3.788;2022-08-18T16:43:42;8.82;;;7.00;;
27225;SDS011;14732;51.074;3.788;2022-08-18T16:46:14;8.68;;;7.05;;
27225;SDS011;14732;51.074;3.788;2022-08-18T16:48:42;8.38;;;7.22;;
27225;SDS011;14732;51.074;3.788;2022-08-18T16:51:13;7.07;;;6.38;;
27225;SDS011;14732;51.074;3.788;2022-08-18T16:53:40;7.05;;;6.35;;
27225;SDS011;14732;51.074;3.788;2022-08-18T16:56:14;7.18;;;6.47;;
27225;SDS011;14732;51.074;3.788;2022-08-18T16:58:41;7.50;;;6.82;;
27225;SDS011;14732;51.074;3.788;2022-08-18T17:01:26;9.02;;;5.97;;
27225;SDS011;14732;51.074;3.788;2022-08-18T17:04:11;10.50;;;6.72;;
27225;SDS011;14732;51.074;3.788;2022-08-18T17:06:38;9.82;;;7.25;;
27225;SDS011;14732;51.074;3.788;2022-08-18T17:09:05;8.95;;;5.72;;
27225;SDS011;14732;51.074;3.788;2022-08-18T17:11:34;7.22;;;6.53;;
27225;SDS011;14732;51.074;3.788;2022-08-18T17:14:01;6.97;;;5.97;;
27225;SDS011;14732;51.074;3.788;2022-08-18T17:16:28;7.30;;;6.60;;
27225;SDS011;14732;51.074;3.788;2022-08-18T17:18:54;8.75;;;6.30;;
27225;SDS011;14732;51.074;3.788;2022-08-18T17:21:22;7.05;;;5.90;;
27225;SDS011;14732;51.074;3.788;2022-08-18T17:26:27;6.57;;;5.95;;
27225;SDS011;14732;51.074;3.788;2022-08-18T17:29:06;7.25;;;6.28;;
27225;SDS011;14732;51.074;3.788;2022-08-18T17:31:34;8.98;;;6.93;;